Date,TemperatureHighF,TemperatureAvgF,TemperatureLowF,DewpointHighF,DewpointAvgF,DewpointLowF,HumidityHigh,HumidityAvg,HumidityLow,PressureMaxIn,PressureMinIn,WindSpeedMaxMPH,WindSpeedAvgMPH,GustSpeedMaxMPH,PrecipitationSumIn
2013-3-1,38.8,35.4,32.3,29.3,25.6,21.8,88,68,51,30.09,30.03,7,3,13,0.00
2013-3-2,36.5,32.2,29.4,29.1,25.6,20.9,89,77,60,30.17,30.03,8,3,20,0.04
2013-3-3,46.5,34.8,25.7,21.0,12.0,0.0,71,43,14,30.19,30.07,9,3,17,0.00
2013-3-4,59.0,47.0,32.7,32.6,16.6,9.8,53,31,16,30.16,29.87,11,4,20,0.00
2013-3-5,57.9,48.7,33.8,54.7,39.3,15.8,94,70,44,30.07,29.67,19,7,39,0.78
2013-3-6,44.4,36.1,29.3,23.8,19.7,12.2,71,52,41,30.31,30.06,13,5,28,0.00
2013-3-7,53.2,37.9,26.4,26.6,23.3,19.9,79,58,31,30.36,30.26,10,2,14,0.00
2013-3-8,61.8,42.2,27.8,27.4,18.7,3.4,78,46,10,30.37,30.21,4,1,9,0.00
2013-3-9,69.2,54.9,42.0,25.0,17.8,10.1,37,24,10,30.23,30.05,11,4,18,0.00
2013-3-10,74.6,63.8,54.1,39.8,27.9,22.0,37,26,17,30.08,29.81,17,6,28,0.00
2013-3-11,66.2,59.9,52.8,50.3,45.2,38.4,91,61,36,29.85,29.76,13,6,29,0.77
2013-3-12,59.0,48.2,41.3,27.4,21.3,15.4,52,35,19,30.18,30.06,10,2,15,0.00
2013-3-13,51.9,42.2,33.0,23.2,14.2,-2.0,56,34,11,30.40,30.15,12,4,23,0.00
2013-3-14,53.9,39.0,26.6,14.9,8.8,-7.0,58,34,10,30.46,30.23,7,2,12,0.00
2013-3-15,77.3,60.5,46.2,34.5,21.6,-2.0,33,23,12,30.23,29.91,17,6,27,0.00
2013-3-16,77.5,66.3,55.4,38.5,33.5,25.2,48,31,16,29.96,29.81,15,6,24,0.00
2013-3-17,72.1,63.8,56.3,48.3,41.9,35.9,68,46,28,29.95,29.80,11,5,18,0.00
2013-3-18,63.5,59.2,49.4,59.9,51.5,41.3,94,76,58,29.95,29.71,17,4,30,0.61
2013-3-19,64.2,49.9,39.9,41.8,25.5,0.0,86,48,10,30.16,29.96,9,2,15,0.00
2013-3-20,57.0,46.0,37.9,21.9,8.2,-5.0,52,23,10,30.17,29.97,11,3,26,0.00
2013-3-21,45.3,34.9,24.2,22.2,5.1,-12.0,56,32,10,30.12,29.95,8,2,12,0.00
2013-3-22,48.7,43.5,38.3,33.2,20.8,5.4,65,41,23,30.04,29.94,9,2,15,0.02
2013-3-23,55.4,48.4,43.7,48.8,43.1,33.9,92,82,67,29.96,29.64,12,2,19,1.18
2013-3-24,60.9,51.2,38.1,51.0,39.9,17.6,92,66,43,29.82,29.46,19,8,36,0.43
2013-3-25,37.9,35.0,33.2,20.0,16.1,13.2,57,46,36,30.18,29.81,13,7,31,0.00
2013-3-26,40.2,35.3,31.1,21.8,19.5,16.6,63,53,42,30.37,30.16,10,4,19,0.00
2013-3-27,54.1,39.6,29.3,20.9,16.9,10.2,63,43,18,30.41,30.29,9,2,15,0.00
2013-3-29,68.0,60.8,53.9,31.3,20.5,8.0,42,23,10,30.26,30.13,10,2,17,0.00
2013-3-30,69.4,56.6,47.6,52.2,41.3,29.7,91,60,30,30.18,29.95,12,2,22,0.60
2013-3-31,65.1,57.4,53.6,56.1,53.5,51.4,93,87,65,29.95,29.84,10,2,17,0.32